createdAt,value
2022-08-03T00:00:26.509Z,19.78
2022-08-03T00:02:53.472Z,20.02
2022-08-03T00:05:20.173Z,20.02
2022-08-03T00:07:46.662Z,19.61
2022-08-03T00:10:16.063Z,19.58
2022-08-03T00:12:42.543Z,19.76
2022-08-03T00:15:11.339Z,19.55
2022-08-03T00:17:52.949Z,19.70
2022-08-03T00:20:23.733Z,20.04
2022-08-03T00:22:51.642Z,20.19
2022-08-03T00:25:18.363Z,20.24
2022-08-03T00:27:45.589Z,20.20
2022-08-03T00:30:14.801Z,20.24
2022-08-03T00:32:45.048Z,20.22
2022-08-03T00:35:18.260Z,20.20
2022-08-03T00:37:58.921Z,20.16
2022-08-03T00:40:25.663Z,20.15
2022-08-03T00:42:57.322Z,20.13
2022-08-03T00:45:30.041Z,20.04
2022-08-03T00:47:56.843Z,20.00
2022-08-03T00:50:25.980Z,19.89
2022-08-03T00:52:54.640Z,19.92
2022-08-03T00:55:22.108Z,19.79
2022-08-03T00:57:48.944Z,19.93
2022-08-03T01:00:21.125Z,19.94
2022-08-03T01:02:49.917Z,19.79
2022-08-03T01:09:09.602Z,19.65
2022-08-03T01:12:03.967Z,19.60
2022-08-03T01:14:49.478Z,19.64
2022-08-03T01:17:25.232Z,19.37
2022-08-03T01:20:02.202Z,19.56
2022-08-03T01:22:57.912Z,19.58
2022-08-03T01:25:46.146Z,19.66
2022-08-03T01:28:43.592Z,19.54
2022-08-03T01:31:13.175Z,19.62
2022-08-03T01:33:43.724Z,19.65
2022-08-03T01:36:14.809Z,19.36
2022-08-03T01:38:58.271Z,19.52
2022-08-03T01:41:31.859Z,19.64
2022-08-03T01:44:30.310Z,19.43
2022-08-03T01:46:51.343Z,19.43
2022-08-03T01:49:18.274Z,19.40
2022-08-03T01:51:57.888Z,19.27
2022-08-03T01:54:35.029Z,19.26
2022-08-03T01:57:03.468Z,19.30
2022-08-03T01:59:31.560Z,19.49
2022-08-03T02:02:15.582Z,19.44
2022-08-03T02:04:48.948Z,19.38
2022-08-03T02:07:16.407Z,19.49
2022-08-03T02:09:46.881Z,19.42
2022-08-03T02:12:15.175Z,19.26
2022-08-03T02:14:44.299Z,19.12
2022-08-03T02:17:12.490Z,19.11
2022-08-03T02:19:40.585Z,19.23
2022-08-03T02:22:11.158Z,19.17
2022-08-03T02:24:38.186Z,19.02
2022-08-03T02:27:13.656Z,19.27
2022-08-03T02:29:42.023Z,19.13
2022-08-03T02:32:14.481Z,19.04
2022-08-03T02:34:45.153Z,18.90
2022-08-03T02:37:13.499Z,19.08
2022-08-03T02:39:41.907Z,19.13
2022-08-03T02:42:12.206Z,18.81
2022-08-03T02:44:41.557Z,18.74
2022-08-03T02:47:10.882Z,19.09
2022-08-03T02:49:50.432Z,18.94
2022-08-03T02:52:21.594Z,19.18
2022-08-03T02:54:51.153Z,19.00
2022-08-03T02:57:19.866Z,18.75
2022-08-03T02:59:47.549Z,19.29
2022-08-03T03:02:16.937Z,19.28
2022-08-03T03:05:50.621Z,19.48
2022-08-03T03:07:41.715Z,19.54
2022-08-03T03:10:21.423Z,19.60
2022-08-03T03:12:50.093Z,19.61
2022-08-03T03:15:16.699Z,19.56
2022-08-03T03:17:44.296Z,19.58
2022-08-03T03:20:11.956Z,19.65
2022-08-03T03:22:39.954Z,19.62
2022-08-03T03:25:07.383Z,19.63
2022-08-03T03:27:34.497Z,19.60
2022-08-03T03:30:02.496Z,19.63
2022-08-03T03:32:29.553Z,19.63
2022-08-03T03:34:59.177Z,19.60
2022-08-03T03:37:27.015Z,19.64
2022-08-03T03:39:54.752Z,19.62
2022-08-03T03:42:22.017Z,19.60
2022-08-03T03:44:48.761Z,19.62
2022-08-03T03:47:15.337Z,19.55
2022-08-03T03:49:43.686Z,19.65
2022-08-03T03:52:11.111Z,19.54
2022-08-03T03:54:45.462Z,19.63
2022-08-03T03:57:13.093Z,19.60
2022-08-03T03:59:44.130Z,19.66
2022-08-03T04:02:12.225Z,19.67
2022-08-03T04:04:57.521Z,19.52
2022-08-03T04:07:44.047Z,19.26
2022-08-03T04:10:38.675Z,19.48
2022-08-03T04:13:10.182Z,19.49
2022-08-03T04:15:38.489Z,19.29
2022-08-03T04:18:09.722Z,19.39
2022-08-03T04:20:38.804Z,19.61
2022-08-03T04:23:13.551Z,19.63
2022-08-03T04:25:43.540Z,19.67
2022-08-03T04:28:30.870Z,19.73
2022-08-03T04:31:00.155Z,19.77
2022-08-03T04:33:29.356Z,19.88
2022-08-03T04:36:02.940Z,19.85
2022-08-03T04:38:32.793Z,19.81
2022-08-03T04:40:59.839Z,19.85
2022-08-03T04:43:27.841Z,19.68
2022-08-03T04:45:54.846Z,19.72
2022-08-03T04:48:21.514Z,19.73
2022-08-03T04:50:48.203Z,19.63
2022-08-03T04:53:16.343Z,19.83
2022-08-03T04:55:43.129Z,19.54
2022-08-03T04:58:09.789Z,19.42
2022-08-03T05:00:36.303Z,19.71
2022-08-03T05:03:02.787Z,19.77
2022-08-03T05:05:40.672Z,19.84
2022-08-03T05:08:15.797Z,20.00
2022-08-03T05:10:42.278Z,19.83
2022-08-03T05:13:12.901Z,19.70
2022-08-03T05:15:43.279Z,20.01
2022-08-03T05:18:13.893Z,19.65
2022-08-03T05:20:41.346Z,19.89
2022-08-03T05:23:07.954Z,19.92
2022-08-03T05:25:34.492Z,19.92
2022-08-03T05:28:01.401Z,20.03
2022-08-03T05:30:33.510Z,20.12
2022-08-03T05:33:01.721Z,20.14
2022-08-03T05:35:57.366Z,20.27
2022-08-03T05:38:23.950Z,20.24
2022-08-03T05:40:57.262Z,20.14
2022-08-03T05:43:43.050Z,20.38
2022-08-03T05:46:12.204Z,20.39
2022-08-03T05:48:39.898Z,20.53
2022-08-03T05:51:07.708Z,20.56
2022-08-03T05:53:34.951Z,20.62
2022-08-03T05:56:13.090Z,20.65
2022-08-03T05:58:46.644Z,20.73
2022-08-03T06:01:13.527Z,20.95
2022-08-03T06:03:40.172Z,20.86
2022-08-03T06:06:06.686Z,20.92
2022-08-03T06:08:34.031Z,21.05
2022-08-03T06:11:00.571Z,21.01
2022-08-03T06:13:27.139Z,21.17
2022-08-03T06:15:53.690Z,21.19
2022-08-03T06:18:20.254Z,21.20
2022-08-03T06:20:47.084Z,21.31
2022-08-03T06:23:16.015Z,21.33
2022-08-03T06:25:43.051Z,21.61
2022-08-03T06:28:18.947Z,21.47
2022-08-03T06:30:55.608Z,21.70
2022-08-03T06:33:22.138Z,21.71
2022-08-03T06:35:48.695Z,21.54
2022-08-03T06:38:15.158Z,21.88
2022-08-03T06:40:41.850Z,21.93
2022-08-03T06:43:12.199Z,22.05
2022-08-03T06:45:39.396Z,22.26
2022-08-03T06:48:07.992Z,22.42
2022-08-03T06:50:36.246Z,22.46
2022-08-03T06:53:04.085Z,22.63
2022-08-03T06:55:31.122Z,22.88
2022-08-03T06:58:03.185Z,22.99
2022-08-03T07:00:30.910Z,22.98
2022-08-03T07:02:58.500Z,22.89
2022-08-03T07:05:25.401Z,23.27
2022-08-03T07:07:55.836Z,23.32
2022-08-03T07:10:22.427Z,23.97
2022-08-03T07:12:56.023Z,24.21
2022-08-03T07:15:53.687Z,24.42
2022-08-03T07:18:10.155Z,24.44
2022-08-03T07:20:36.750Z,24.99
2022-08-03T07:23:03.665Z,25.08
2022-08-03T07:25:30.154Z,25.60
2022-08-03T07:27:56.667Z,26.11
2022-08-03T07:30:24.739Z,25.38
2022-08-03T07:32:51.527Z,25.61
2022-08-03T07:35:24.211Z,26.09
2022-08-03T07:37:54.958Z,26.83
2022-08-03T07:40:22.404Z,27.22
2022-08-03T07:42:53.421Z,27.91
2022-08-03T07:45:23.284Z,28.83
2022-08-03T07:47:53.514Z,28.68
2022-08-03T07:50:20.850Z,29.12
2022-08-03T07:52:51.470Z,29.79
2022-08-03T07:55:23.232Z,30.02
2022-08-03T07:58:22.029Z,30.60
2022-08-03T08:00:52.864Z,31.08
2022-08-03T08:03:19.887Z,30.66
2022-08-03T08:05:46.354Z,30.78
2022-08-03T08:08:12.854Z,30.94
2022-08-03T08:10:39.341Z,31.88
2022-08-03T08:13:05.838Z,28.78
2022-08-03T08:15:32.668Z,29.38
2022-08-03T08:18:01.426Z,29.67
2022-08-03T08:20:32.089Z,29.53
2022-08-03T08:23:03.631Z,28.73
2022-08-03T08:25:43.834Z,29.28
2022-08-03T08:28:29.927Z,30.46
2022-08-03T08:30:56.774Z,30.71
2022-08-03T08:33:24.089Z,31.71
2022-08-03T08:35:53.097Z,31.62
2022-08-03T08:38:19.662Z,32.69
2022-08-03T08:40:46.270Z,31.87
2022-08-03T08:43:12.759Z,32.32
2022-08-03T08:45:41.045Z,32.16
2022-08-03T08:48:09.461Z,32.06
2022-08-03T08:50:38.726Z,33.05
2022-08-03T08:53:09.755Z,33.30
2022-08-03T08:55:57.967Z,32.61
2022-08-03T08:58:28.546Z,32.14
2022-08-03T09:00:55.161Z,32.93
2022-08-03T09:03:29.320Z,32.72
2022-08-03T09:05:59.710Z,33.32
2022-08-03T09:08:26.319Z,34.16
2022-08-03T09:10:52.885Z,33.83
2022-08-03T09:13:19.525Z,34.59
2022-08-03T09:16:01.260Z,34.32
2022-08-03T09:18:32.223Z,34.77
2022-08-03T09:21:30.193Z,34.04
2022-08-03T09:24:04.143Z,33.13
2022-08-03T09:26:33.159Z,33.98
2022-08-03T09:29:10.868Z,32.96
2022-08-03T09:31:43.507Z,33.64
2022-08-03T09:34:13.195Z,33.61
2022-08-03T09:36:47.805Z,32.52
2022-08-03T09:39:40.665Z,32.51
2022-08-03T09:42:06.870Z,34.31
2022-08-03T09:44:37.595Z,33.96
2022-08-03T09:47:05.480Z,32.49
2022-08-03T09:49:32.926Z,32.63
2022-08-03T09:52:32.823Z,32.32
2022-08-03T09:55:02.788Z,33.33
2022-08-03T09:57:32.566Z,33.38
2022-08-03T10:00:10.976Z,34.77
2022-08-03T10:02:38.258Z,35.05
2022-08-03T10:05:06.571Z,33.86
2022-08-03T10:07:46.709Z,33.53
2022-08-03T10:10:30.838Z,33.80
2022-08-03T10:13:00.010Z,34.59
2022-08-03T10:16:21.427Z,35.03
2022-08-03T10:18:13.726Z,34.63
2022-08-03T10:20:45.598Z,35.02
2022-08-03T10:23:14.296Z,35.00
2022-08-03T10:25:41.436Z,35.39
2022-08-03T10:28:10.978Z,36.38
2022-08-03T10:30:41.107Z,35.54
2022-08-03T10:33:50.891Z,35.85
2022-08-03T10:36:07.405Z,35.30
2022-08-03T10:38:43.268Z,34.08
2022-08-03T10:41:10.937Z,34.10
2022-08-03T10:43:44.606Z,34.14
2022-08-03T10:46:11.132Z,33.13
2022-08-03T10:48:38.223Z,33.69
2022-08-03T10:51:04.952Z,34.10
2022-08-03T10:53:54.804Z,34.97
2022-08-03T10:56:53.394Z,34.69
2022-08-03T10:59:46.585Z,34.50
2022-08-03T11:02:16.857Z,34.40
2022-08-03T11:04:45.184Z,33.98
2022-08-03T11:07:17.853Z,34.26
2022-08-03T11:09:49.732Z,34.60
2022-08-03T11:12:28.988Z,33.86
2022-08-03T11:15:02.477Z,33.77
2022-08-03T11:17:29.186Z,33.46
2022-08-03T11:19:57.971Z,33.44
2022-08-03T11:22:25.383Z,33.91
2022-08-03T11:24:54.077Z,33.66
2022-08-03T11:27:22.740Z,34.25
2022-08-03T11:29:56.877Z,34.42
2022-08-03T11:32:46.600Z,34.39
2022-08-03T11:35:22.295Z,34.15
2022-08-03T11:38:03.193Z,33.21
2022-08-03T11:40:53.847Z,33.97
2022-08-03T11:43:35.089Z,34.89
2022-08-03T11:46:03.076Z,34.25
2022-08-03T11:48:35.479Z,33.62
2022-08-03T11:51:03.834Z,34.73
2022-08-03T11:53:31.192Z,34.16
2022-08-03T11:56:02.471Z,34.13
2022-08-03T11:59:19.012Z,33.73
2022-08-03T12:01:22.981Z,33.64
2022-08-03T12:03:49.989Z,33.67
2022-08-03T12:06:17.820Z,32.84
2022-08-03T12:08:45.911Z,32.37
2022-08-03T12:11:14.927Z,30.87
2022-08-03T12:13:56.725Z,30.95
2022-08-03T12:16:33.832Z,31.91
2022-08-03T12:19:07.026Z,32.32
2022-08-03T12:21:33.663Z,32.35
2022-08-03T12:24:05.379Z,31.43
2022-08-03T12:26:44.911Z,31.29
2022-08-03T12:29:25.865Z,31.20
2022-08-03T12:31:52.519Z,31.31
2022-08-03T12:34:18.973Z,31.83
2022-08-03T12:36:56.595Z,31.67
2022-08-03T12:39:25.147Z,31.42
2022-08-03T12:41:56.084Z,31.23
2022-08-03T12:44:33.042Z,31.55
2022-08-03T12:47:00.041Z,31.62
2022-08-03T12:49:30.429Z,31.66
2022-08-03T12:52:05.271Z,31.64
2022-08-03T12:54:35.882Z,31.73
2022-08-03T12:57:11.107Z,31.34
2022-08-03T12:59:53.359Z,30.75
2022-08-03T13:02:26.215Z,31.40
2022-08-03T13:04:54.691Z,31.62
2022-08-03T13:07:22.506Z,31.32
2022-08-03T13:09:50.100Z,31.07
2022-08-03T13:12:24.963Z,30.99
2022-08-03T13:14:55.388Z,31.16
2022-08-03T13:17:22.333Z,31.28
2022-08-03T13:19:49.577Z,31.14
2022-08-03T13:22:24.973Z,31.39
2022-08-03T13:24:53.504Z,31.73
2022-08-03T13:28:01.070Z,31.65
2022-08-03T13:30:08.663Z,31.15
2022-08-03T13:32:35.879Z,31.25
2022-08-03T13:35:03.060Z,31.43
2022-08-03T13:37:32.207Z,31.57
2022-08-03T13:40:02.689Z,31.47
2022-08-03T13:42:31.875Z,31.52
2022-08-03T13:44:59.057Z,31.49
2022-08-03T13:47:26.056Z,31.47
2022-08-03T13:49:55.833Z,30.96
2022-08-03T13:52:27.727Z,30.78
2022-08-03T13:54:54.595Z,30.76
2022-08-03T13:58:02.298Z,31.06
2022-08-03T14:00:08.618Z,31.23
2022-08-03T14:02:35.218Z,31.28
2022-08-03T14:05:01.944Z,31.25
2022-08-03T14:07:28.582Z,31.24
2022-08-03T14:09:55.026Z,31.16
2022-08-03T14:12:21.486Z,31.32
2022-08-03T14:14:47.955Z,31.22
2022-08-03T14:17:16.375Z,31.05
2022-08-03T14:19:53.353Z,31.11
2022-08-03T14:22:21.140Z,31.04
2022-08-03T14:24:48.072Z,31.33
2022-08-03T14:27:16.327Z,30.96
2022-08-03T14:29:42.998Z,31.21
2022-08-03T14:32:13.240Z,31.14
2022-08-03T14:34:40.578Z,31.04
2022-08-03T14:37:07.099Z,30.60
2022-08-03T14:42:21.725Z,30.57
2022-08-03T14:44:48.327Z,30.46
2022-08-03T14:47:14.945Z,30.96
2022-08-03T14:50:36.014Z,30.98
2022-08-03T14:52:28.762Z,30.93
2022-08-03T14:54:55.252Z,30.79
2022-08-03T14:57:22.106Z,30.23
2022-08-03T14:59:56.268Z,30.85
2022-08-03T15:02:24.898Z,30.84
2022-08-03T15:04:52.197Z,30.86
2022-08-03T15:07:19.219Z,30.74
2022-08-03T15:09:46.008Z,30.86
2022-08-03T15:12:12.539Z,31.03
2022-08-03T15:14:39.016Z,30.88
2022-08-03T15:17:05.907Z,30.79
2022-08-03T15:20:00.818Z,30.90
2022-08-03T15:22:20.645Z,30.38
2022-08-03T15:24:52.026Z,30.29
2022-08-03T15:27:18.806Z,30.48
2022-08-03T15:30:05.485Z,30.55
2022-08-03T15:32:33.606Z,30.57
2022-08-03T15:35:00.644Z,30.67
2022-08-03T15:37:27.839Z,30.83
2022-08-03T15:39:59.558Z,30.72
2022-08-03T15:42:30.766Z,30.44
2022-08-03T15:44:57.416Z,30.50
2022-08-03T15:47:24.204Z,30.68
2022-08-03T15:49:50.701Z,30.23
2022-08-03T15:52:17.170Z,30.54
2022-08-03T15:54:43.671Z,30.41
2022-08-03T15:57:10.209Z,30.51
2022-08-03T15:59:37.045Z,30.54
2022-08-03T16:02:03.876Z,30.60
2022-08-03T16:04:30.534Z,30.62
2022-08-03T16:06:57.154Z,30.65
2022-08-03T16:09:42.166Z,30.55
2022-08-03T16:12:11.841Z,30.52
2022-08-03T16:14:51.759Z,30.63
2022-08-03T16:17:20.196Z,30.67
2022-08-03T16:19:46.879Z,30.61
2022-08-03T16:22:14.527Z,30.49
2022-08-03T16:24:41.336Z,30.70
2022-08-03T16:27:36.810Z,30.77
2022-08-03T16:29:54.593Z,30.67
2022-08-03T16:32:21.214Z,30.65
2022-08-03T16:34:48.214Z,30.57
2022-08-03T16:37:37.473Z,30.65
2022-08-03T16:40:02.105Z,30.59
2022-08-03T16:42:28.684Z,30.60
2022-08-03T16:44:55.254Z,30.53
2022-08-03T16:47:22.780Z,30.47
2022-08-03T16:49:53.662Z,30.71
2022-08-03T16:52:23.642Z,30.72
2022-08-03T16:54:53.276Z,30.46
2022-08-03T16:57:58.779Z,30.37
2022-08-03T17:00:34.664Z,30.39
2022-08-03T17:03:04.661Z,30.39
2022-08-03T17:05:47.048Z,30.60
2022-08-03T17:08:14.626Z,30.56
2022-08-03T17:10:45.056Z,30.43
2022-08-03T17:13:20.752Z,30.49
2022-08-03T17:16:00.976Z,30.43
2022-08-03T17:18:34.012Z,30.41
2022-08-03T17:21:05.870Z,30.33
2022-08-03T17:23:51.649Z,30.16
2022-08-03T17:26:22.214Z,30.15
2022-08-03T17:28:57.261Z,30.13
2022-08-03T17:31:31.753Z,30.01
2022-08-03T17:34:01.967Z,29.95
2022-08-03T17:39:30.788Z,29.64
2022-08-03T17:42:31.631Z,29.91
2022-08-03T17:44:55.624Z,29.84
2022-08-03T17:47:22.919Z,29.66
2022-08-03T17:49:56.874Z,29.64
2022-08-03T17:52:27.565Z,29.55
2022-08-03T17:55:55.230Z,29.52
2022-08-03T17:58:03.329Z,29.27
2022-08-03T18:00:51.812Z,29.53
2022-08-03T18:03:27.807Z,29.41
2022-08-03T18:06:10.403Z,29.58
2022-08-03T18:08:46.134Z,29.42
2022-08-03T18:11:16.290Z,29.47
2022-08-03T18:14:09.939Z,29.53
2022-08-03T18:17:11.331Z,29.31
2022-08-03T18:20:02.713Z,29.24
2022-08-03T18:22:28.567Z,29.37
2022-08-03T18:24:58.993Z,29.07
2022-08-03T18:27:42.778Z,29.18
2022-08-03T18:30:15.190Z,29.21
2022-08-03T18:32:43.382Z,29.06
2022-08-03T18:35:53.571Z,29.16
2022-08-03T18:38:18.835Z,28.94
2022-08-03T18:40:48.686Z,28.94
2022-08-03T18:43:17.483Z,29.00
2022-08-03T18:45:57.410Z,28.84
2022-08-03T18:48:46.353Z,28.77
2022-08-03T18:51:24.227Z,28.88
2022-08-03T18:54:12.078Z,28.81
2022-08-03T18:57:01.895Z,28.73
2022-08-03T18:59:49.516Z,28.76
2022-08-03T19:02:40.909Z,28.66
2022-08-03T19:05:53.676Z,28.63
2022-08-03T19:08:32.607Z,28.55
2022-08-03T19:11:03.292Z,28.52
2022-08-03T19:13:50.409Z,28.53
2022-08-03T19:16:38.860Z,28.30
2022-08-03T19:19:10.529Z,28.39
2022-08-03T19:21:41.546Z,28.33
2022-08-03T19:24:10.391Z,28.10
2022-08-03T19:26:39.491Z,28.17
2022-08-03T19:29:15.219Z,28.19
2022-08-03T19:31:59.039Z,28.22
2022-08-03T19:34:29.121Z,28.18
2022-08-03T19:36:58.365Z,28.12
2022-08-03T19:39:25.580Z,28.12
2022-08-03T19:41:56.066Z,28.07
2022-08-03T19:44:29.056Z,28.07
2022-08-03T19:47:09.643Z,28.09
2022-08-03T19:49:57.114Z,28.01
2022-08-03T19:52:31.302Z,27.96
2022-08-03T19:55:00.507Z,27.90
2022-08-03T19:57:28.707Z,27.83
2022-08-03T19:59:56.489Z,27.84
2022-08-03T20:02:26.480Z,27.73
2022-08-03T20:04:54.615Z,27.73
2022-08-03T20:07:22.891Z,27.64
2022-08-03T20:09:54.561Z,27.59
2022-08-03T20:12:27.338Z,26.98
2022-08-03T20:14:57.371Z,25.84
2022-08-03T20:20:10.968Z,25.57
2022-08-03T20:22:45.471Z,25.41
2022-08-03T20:25:13.220Z,25.45
2022-08-03T20:28:06.705Z,25.59
2022-08-03T20:30:34.410Z,25.48
2022-08-03T20:33:01.122Z,25.37
2022-08-03T20:35:28.772Z,25.31
2022-08-03T20:37:55.607Z,25.46
2022-08-03T20:40:27.377Z,25.55
2022-08-03T20:42:55.243Z,25.30
2022-08-03T20:46:00.112Z,25.23
2022-08-03T20:48:10.060Z,25.25
2022-08-03T20:50:38.703Z,25.46
2022-08-03T20:53:07.181Z,25.30
2022-08-03T20:55:48.283Z,25.23
2022-08-03T20:58:23.764Z,25.36
2022-08-03T21:00:51.438Z,25.02
2022-08-03T21:03:18.415Z,25.01
2022-08-03T21:05:47.709Z,25.04
2022-08-03T21:08:20.664Z,25.23
2022-08-03T21:10:48.872Z,25.50
2022-08-03T21:13:10.282Z,25.70
2022-08-03T21:13:23.609Z,25.08
2022-08-03T21:16:01.091Z,24.94
2022-08-03T21:18:49.480Z,24.91
2022-08-03T21:21:18.937Z,24.84
2022-08-03T21:23:49.920Z,24.89
2022-08-03T21:26:18.864Z,24.92
2022-08-03T21:28:48.030Z,24.82
2022-08-03T21:31:23.694Z,24.82
2022-08-03T21:33:53.673Z,24.85
2022-08-03T21:36:20.353Z,25.11
2022-08-03T21:38:47.619Z,25.25
2022-08-03T21:41:23.481Z,24.91
2022-08-03T21:43:49.909Z,24.84
2022-08-03T21:46:19.512Z,24.82
2022-08-03T21:48:53.574Z,24.97
2022-08-03T21:51:24.700Z,25.14
2022-08-03T21:54:02.727Z,25.09
2022-08-03T21:56:36.296Z,24.80
2022-08-03T21:59:08.065Z,24.56
2022-08-03T22:01:36.223Z,24.66
2022-08-03T22:04:11.823Z,24.64
2022-08-03T22:06:54.370Z,24.53
2022-08-03T22:09:21.172Z,24.46
2022-08-03T22:11:50.806Z,24.49
2022-08-03T22:14:17.385Z,24.66
2022-08-03T22:16:44.765Z,24.79
2022-08-03T22:19:11.491Z,24.60
2022-08-03T22:21:39.751Z,24.57
2022-08-03T22:24:07.187Z,24.67
2022-08-03T22:26:35.868Z,24.73
2022-08-03T22:29:07.093Z,24.55
2022-08-03T22:31:58.669Z,24.51
2022-08-03T22:34:26.779Z,24.41
2022-08-03T22:37:00.041Z,24.48
2022-08-03T22:39:28.974Z,24.57
2022-08-03T22:42:01.239Z,24.48
2022-08-03T22:44:28.153Z,24.41
2022-08-03T22:46:56.593Z,24.51
2022-08-03T22:49:23.646Z,24.47
2022-08-03T22:51:54.383Z,24.35
2022-08-03T22:54:21.071Z,24.38
2022-08-03T22:56:47.851Z,24.48
2022-08-03T22:59:40.283Z,24.19
2022-08-03T23:02:20.381Z,24.36
2022-08-03T23:04:56.923Z,24.46
2022-08-03T23:07:38.855Z,24.20
2022-08-03T23:10:08.753Z,24.20
2022-08-03T23:12:39.725Z,24.25
2022-08-03T23:15:09.235Z,24.27
2022-08-03T23:17:57.228Z,24.17
2022-08-03T23:20:26.636Z,24.26
2022-08-03T23:22:54.440Z,24.33
2022-08-03T23:25:21.984Z,24.28
2022-08-03T23:28:04.849Z,23.80
2022-08-03T23:30:37.129Z,24.05
2022-08-03T23:33:04.474Z,24.17
2022-08-03T23:36:29.595Z,24.07
2022-08-03T23:38:37.157Z,24.04
2022-08-03T23:41:04.893Z,24.13
2022-08-03T23:43:51.154Z,23.88
2022-08-03T23:46:22.116Z,23.98
2022-08-03T23:48:48.680Z,24.04
2022-08-03T23:51:43.619Z,23.95
2022-08-03T23:54:15.970Z,24.00
2022-08-03T23:56:59.120Z,23.98
2022-08-03T23:59:34.562Z,23.93
